This is the latest recevied weather packets stored in our database for station/object K0BL. If no packets are shown the sender has not sent any weather packets the latest 10 day(s).
| Time | Temp. | Humidity | Pressure | Rain* | Wind** | Luminosity | Snow |
|---|---|---|---|---|---|---|---|
| 1778034943 | 11.67° C | 58% | 1009 hPa | 0 mm | - | 0 W/m² | - |
| 1778033745 | 11.67° C | 60% | 1008.9 hPa | 0 mm | - | 0 W/m² | - |
| 1778031945 | 12.22° C | 59% | 1008.4 hPa | 0 mm | - | 0 W/m² | - |
| 1778030142 | 12.78° C | 57% | 1008.1 hPa | 0 mm | - | 0 W/m² | - |
| 1778029542 | 12.78° C | 56% | 1008 hPa | 0 mm | - | 4 W/m² | - |
| 1778028942 | 12.78° C | 56% | 1008 hPa | 0 mm | - | 9 W/m² | - |
| 1778027442 | 13.33° C | 54% | 1007.6 hPa | 0 mm | - | 36 W/m² | - |
| 1778026537 | 13.89° C | 52% | 1007.7 hPa | 0 mm | - | 48 W/m² | - |
| 1778024734 | 13.89° C | 49% | 1007.7 hPa | 0 mm | - | 57 W/m² | - |
| 1778023232 | 14.44° C | 48% | 1007.7 hPa | 0 mm | - | 90 W/m² | - |
| 1778022632 | 14.44° C | 47% | 1007.7 hPa | 0 mm | - | 106 W/m² | - |
| 1778014786 | 13.33° C | 46% | 1008.5 hPa | 0 mm | - | 184 W/m² | - |
| 1778013583 | 13.33° C | 46% | 1008.7 hPa | 0 mm | - | 277 W/m² | - |
| 1778011777 | 13.33° C | 47% | 1009 hPa | 0 mm | - | 190 W/m² | - |
| 1778010877 | 13.89° C | 45% | 1009 hPa | 0 mm | - | 246 W/m² | - |
| 1778009674 | 13.33° C | 47% | 1009.1 hPa | 0 mm | - | 230 W/m² | - |
| 1778009374 | 13.33° C | 47% | 1009.2 hPa | 0 mm | - | 286 W/m² | - |
| 1778007871 | 12.78° C | 47% | 1009.4 hPa | 0 mm | - | 220 W/m² | - |
| 1778006970 | 13.33° C | 46% | 1009.4 hPa | 0 mm | - | 226 W/m² | - |
| 1778006369 | 13.33° C | 47% | 1009.5 hPa | 0 mm | - | 272 W/m² | - |
| 1778004570 | 12.78° C | 50% | 1009.6 hPa | 0 mm | - | 223 W/m² | - |
| 1778003967 | 12.78° C | 48% | 1009.6 hPa | 0 mm | - | 227 W/m² | - |
| 1778003367 | 12.78° C | 48% | 1010 hPa | 0 mm | - | 293 W/m² | - |
| 1778001267 | 12.78° C | 49% | 1010.1 hPa | 0 mm | - | 281 W/m² | - |
| 1778000065 | 12.78° C | 49% | 1010.1 hPa | 0 mm | - | 268 W/m² | - |
* Rain latest hour (hover to see other rain measurements)
** Current wind speed in m/s (hover to see current wind gust speed)